Washington, OH (43749)

4:11 AM EDT on July 30, 2015 (GMT -0400)
Heller Drive | | Change Station
CLOSE
Current Station
Personal Weather Station
Location: Newcomerstown, OH
Elevation: 792 ft
Nearby Weather Stations

Elev 792 ft 40.27 °N, 81.61 °W | Updated 8 seconds ago

Overcast
Overcast
75.4 °F
Feels Like 76 °F
N
0.0
Wind Variable Wind from West
Gusts 5.0 mph

Today
High -- | Low -- °F
--% Chance of Precip.
Yesterday
High -- | Low -- °F
Precip. -- in
6:22 AM 8:42 PM
Waxing Gibbous, 98% visible
Pressure 29.92 in
Visibility 10.0 miles
Clouds Few 2000 ft
Scattered Clouds 3100 ft
Scattered Clouds 4100 ft
Heat Index 76 °F
Dew Point 70 °F
Humidity 84%
Rainfall 0.00 in
Snow Depth Not available.
UV 0 out of 12
Pollen 6.50 out of 12
Air Quality Not available.
Flu Activity Not available.
METAR KPHD 300753Z AUTO 32009KT 10SM FEW020 SCT031 SCT041 24/20 A2994 RMK AO2 SLP132 T02390200

More Conditions Fewer Conditions

Pressure 29.92 in
Visibility 10.0 miles
Clouds Few 2000 ft
Scattered Clouds 3100 ft
Scattered Clouds 4100 ft
Heat Index 76 °F
Dew Point 70 °F
Humidity 84%
Rainfall 0.00 in
Snow Depth Not available.
UV 0 out of 12
Pollen 6.50 out of 12
Air Quality Not available.
Flu Activity Not available.
METAR KPHD 300753Z AUTO 32009KT 10SM FEW020 SCT031 SCT041 24/20 A2994 RMK AO2 SLP132 T02390200

More Conditions Fewer Conditions

10-Day Weather Forecast

×

Almanac

Astronomy

Jul. 30, 2015 Rise Set
Actual Time
Civil Twilight
Nautical Twilight
Astronomical Twilight
Moon
Length of Visible Light
Length of Day
Tomorrow will be .
, % of the Moon is Illuminated

Today's Extremes

State Highs State Lows

Community

WunderPhotos

Upload Photos

1,842,315 photos uploaded!

WunderBlogs® & News

Nearby

Air Quality

  Air Quality AQ Index Pollutant
Not available.

Snow Depth

Station Depth Elevation

Earthquake Activity

City Distance Mag. Time & Date
Minimum magnitude displayed is 2.5.

Coastal Water Temperatures

Place Temperature

Stations

Nearby Weather Stations

Station Location Temp. Windchill Dew Point Humidity Wind Precip. Elev Updated Type